Time;durP1;ratioP1;P1;durP2;ratioP2;P2;SDS_P1;SDS_P2;PMS_P1;PMS_P2;Temp;Humidity;BMP_temperature;BMP_pressure;BME280_temperature;BME280_humidity;BME280_pressure;Samples;Min_cycle;Max_cycle;Signal;HPM_P1;HPM_P2
2022/07/24 00:00:45;;;;;;;6.30;1.60;;;;;;;16.32;46.28;101370.00;5011662;28;20050;-69
2022/07/24 00:03:12;;;;;;;3.75;1.20;;;;;;;16.25;46.57;101372.59;5011185;28;20081;-69
2022/07/24 00:05:39;;;;;;;3.25;1.50;;;;;;;16.15;46.75;101383.66;5004883;28;20461;-70
2022/07/24 00:08:05;;;;;;;4.57;1.38;;;;;;;16.18;46.71;101375.16;5011642;28;20069;-70
2022/07/24 00:10:32;;;;;;;6.43;1.67;;;;;;;16.15;46.78;101380.94;5011422;28;20516;-69
2022/07/24 00:12:59;;;;;;;2.60;1.35;;;;;;;16.12;47.22;101378.59;5010923;28;20128;-70
2022/07/24 00:15:25;;;;;;;3.08;1.73;;;;;;;16.06;47.44;101382.03;5011536;28;20159;-69
2022/07/24 00:17:52;;;;;;;4.93;1.67;;;;;;;16.01;47.33;101380.88;5013009;28;20069;-69
2022/07/24 00:20:19;;;;;;;3.53;1.30;;;;;;;15.92;47.71;101377.41;5014473;28;20130;-69
2022/07/24 00:22:45;;;;;;;3.72;2.10;;;;;;;15.89;47.69;101381.31;5014660;28;20509;-69
2022/07/24 00:25:12;;;;;;;7.20;1.85;;;;;;;15.87;47.96;101388.75;5015224;28;20096;-69
2022/07/24 00:27:38;;;;;;;4.28;2.03;;;;;;;15.92;47.89;101380.13;5015010;28;20482;-69
2022/07/24 00:30:06;;;;;;;3.70;2.15;;;;;;;15.85;47.91;101379.16;5014044;28;20133;-69
2022/07/24 00:32:32;;;;;;;7.30;2.50;;;;;;;15.81;48.10;101384.09;5015781;28;20073;-69
2022/07/24 00:34:59;;;;;;;5.22;2.58;;;;;;;15.77;48.14;101393.56;5016086;28;20061;-70
2022/07/24 00:37:27;;;;;;;6.18;2.13;;;;;;;15.77;48.37;101387.31;5014791;28;20137;-69
2022/07/24 00:39:53;;;;;;;8.13;2.65;;;;;;;15.74;48.45;101393.06;5014658;28;20069;-69
2022/07/24 00:42:20;;;;;;;4.85;2.65;;;;;;;15.66;48.55;101386.69;5014787;28;20128;-70
2022/07/24 00:44:46;;;;;;;7.05;2.50;;;;;;;15.63;48.71;101397.84;5014508;28;20437;-69
2022/07/24 00:47:14;;;;;;;5.25;2.67;;;;;;;15.54;48.88;101398.06;5015100;28;20057;-69
2022/07/24 00:49:41;;;;;;;4.88;2.53;;;;;;;15.48;48.88;101408.56;5013762;28;20038;-69
2022/07/24 00:52:08;;;;;;;7.10;2.63;;;;;;;15.40;49.30;101405.91;5014464;28;20049;-69
2022/07/24 00:54:35;;;;;;;9.30;2.85;;;;;;;15.40;49.18;101405.06;5015528;28;20045;-69
2022/07/24 00:57:01;;;;;;;8.45;2.20;;;;;;;15.41;49.21;101402.16;5015192;28;20042;-70
2022/07/24 00:59:28;;;;;;;5.47;2.83;;;;;;;15.39;49.43;101393.38;5014876;28;20082;-69
2022/07/24 01:01:55;;;;;;;5.63;2.38;;;;;;;15.37;49.34;101403.53;5014203;28;20073;-69
2022/07/24 01:04:22;;;;;;;6.57;2.97;;;;;;;15.34;49.41;101403.03;5013476;28;20054;-70
2022/07/24 01:07:13;;;;;;;6.47;2.90;;;;;;;15.33;49.51;101412.16;5014592;28;20052;-68
2022/07/24 01:09:40;;;;;;;12.25;2.88;;;;;;;15.30;49.73;101401.72;5014933;28;20546;-70
2022/07/24 01:12:07;;;;;;;6.03;2.60;;;;;;;15.20;49.92;101402.75;5014547;28;20121;-68
2022/07/24 01:14:34;;;;;;;3.67;1.73;;;;;;;15.20;50.18;101408.16;5014230;28;20050;-70
2022/07/24 01:17:01;;;;;;;4.32;2.42;;;;;;;15.19;49.96;101413.75;5014933;28;20161;-70
2022/07/24 01:19:28;;;;;;;9.45;2.80;;;;;;;15.18;50.05;101418.28;5014020;28;20096;-69
2022/07/24 01:21:54;;;;;;;5.13;2.47;;;;;;;15.17;50.04;101411.19;5013723;28;20080;-69
2022/07/24 01:24:22;;;;;;;3.95;1.95;;;;;;;15.15;50.18;101415.09;5013788;28;20046;-69
2022/07/24 01:26:49;;;;;;;6.50;2.22;;;;;;;15.10;50.30;101412.91;5014746;28;20080;-69
2022/07/24 01:29:16;;;;;;;5.18;1.83;;;;;;;15.03;50.52;101419.19;5013858;28;20470;-69
2022/07/24 01:31:42;;;;;;;3.58;1.88;;;;;;;15.01;50.48;101414.78;5013653;28;20065;-69
2022/07/24 01:34:09;;;;;;;4.93;1.92;;;;;;;15.00;50.36;101409.56;5014006;28;20457;-69
2022/07/24 01:36:36;;;;;;;4.90;1.90;;;;;;;14.89;50.57;101412.63;5014995;28;20066;-69
2022/07/24 01:39:03;;;;;;;3.95;1.90;;;;;;;14.93;50.37;101416.69;5014651;28;20064;-69
2022/07/24 01:41:30;;;;;;;5.47;1.63;;;;;;;14.90;50.47;101417.00;5014016;28;20084;-69
2022/07/24 01:43:56;;;;;;;4.13;1.60;;;;;;;14.89;50.63;101410.78;5014635;28;20105;-69
2022/07/24 01:46:23;;;;;;;8.30;1.73;;;;;;;14.90;50.49;101417.00;5012837;28;20120;-69
2022/07/24 01:48:50;;;;;;;3.30;1.52;;;;;;;14.86;50.36;101421.09;5013448;28;20046;-69
2022/07/24 01:51:16;;;;;;;4.30;1.67;;;;;;;14.93;50.25;101422.06;5013905;28;20072;-69
2022/07/24 01:53:43;;;;;;;6.05;2.03;;;;;;;14.89;50.33;101418.88;5011399;28;20080;-69
2022/07/24 01:56:09;;;;;;;6.25;1.75;;;;;;;14.86;50.45;101421.09;5013809;28;20049;-69
2022/07/24 01:58:39;;;;;;;2.13;1.48;;;;;;;14.89;50.34;101421.59;5014253;28;20124;-69
2022/07/24 02:01:06;;;;;;;3.22;1.30;;;;;;;14.84;50.38;101418.53;5013414;28;20049;-69
2022/07/24 02:03:33;;;;;;;3.90;1.77;;;;;;;14.79;50.33;101420.09;5013924;28;20493;-69
2022/07/24 02:05:59;;;;;;;4.47;1.50;;;;;;;14.73;50.61;101416.19;5014678;28;20041;-69
2022/07/24 02:08:26;;;;;;;2.08;1.30;;;;;;;14.75;50.61;101430.38;5013999;28;20475;-69
2022/07/24 02:10:53;;;;;;;5.03;1.90;;;;;;;14.74;50.73;101417.91;5013634;28;20104;-69
2022/07/24 02:13:19;;;;;;;3.55;1.55;;;;;;;14.69;50.67;101418.34;5014117;28;20541;-69
2022/07/24 02:15:46;;;;;;;3.88;1.40;;;;;;;14.68;50.93;101419.38;5013486;28;20080;-69
2022/07/24 02:18:13;;;;;;;6.10;1.40;;;;;;;14.72;50.95;101417.22;5013719;28;20132;-69
2022/07/24 02:20:39;;;;;;;6.38;1.45;;;;;;;14.70;51.03;101425.47;5012839;28;20120;-69
2022/07/24 02:23:06;;;;;;;4.00;1.65;;;;;;;14.58;51.17;101417.88;5014357;28;20049;-69
2022/07/24 02:25:32;;;;;;;1.45;1.08;;;;;;;14.53;51.32;101426.47;5013133;28;20468;-69
2022/07/24 02:27:59;;;;;;;4.68;1.30;;;;;;;14.57;51.18;101419.72;5012380;28;20137;-69
2022/07/24 02:30:25;;;;;;;1.77;1.40;;;;;;;14.49;51.08;101420.56;5012974;28;20454;-69
2022/07/24 02:32:52;;;;;;;3.33;1.40;;;;;;;14.42;51.30;101419.53;5013674;28;20046;-69
2022/07/24 02:35:18;;;;;;;8.20;1.70;;;;;;;14.44;51.19;101414.00;5014389;28;20076;-68
2022/07/24 02:37:45;;;;;;;6.32;1.48;;;;;;;14.41;51.17;101417.88;5014316;28;20490;-69
2022/07/24 02:40:13;;;;;;;3.85;1.65;;;;;;;14.42;51.23;101414.16;5013271;28;20135;-69
2022/07/24 02:42:40;;;;;;;3.95;1.20;;;;;;;14.41;51.27;101409.78;5013374;28;20050;-68
2022/07/24 02:45:08;;;;;;;4.50;1.25;;;;;;;14.39;51.24;101414.50;5014057;28;20482;-69
2022/07/24 02:47:36;;;;;;;4.85;1.65;;;;;;;14.37;51.20;101411.13;5012518;28;20038;-69
2022/07/24 02:50:03;;;;;;;4.43;1.10;;;;;;;14.42;51.24;101418.72;5012878;28;20053;-67
2022/07/24 02:52:30;;;;;;;4.45;1.20;;;;;;;14.36;51.42;101419.38;5013883;28;20462;-69
2022/07/24 02:54:56;;;;;;;2.72;1.00;;;;;;;14.27;51.67;101421.25;5013718;28;20479;-67
2022/07/24 02:57:23;;;;;;;2.72;1.30;;;;;;;14.33;51.67;101423.28;5013638;28;20129;-68
2022/07/24 02:59:51;;;;;;;3.45;1.25;;;;;;;14.29;51.32;101428.16;5013283;28;20124;-69
2022/07/24 03:02:19;;;;;;;5.30;1.48;;;;;;;14.25;51.57;101424.13;5013293;28;20050;-69
2022/07/24 03:04:45;;;;;;;3.75;1.48;;;;;;;14.22;51.74;101432.53;5014020;28;20053;-69
2022/07/24 03:07:12;;;;;;;4.07;1.30;;;;;;;14.23;51.46;101431.53;5012421;28;20145;-69
2022/07/24 03:09:38;;;;;;;4.68;1.58;;;;;;;14.18;51.37;101424.94;5013237;28;20076;-67
2022/07/24 03:12:05;;;;;;;1.60;1.05;;;;;;;14.21;51.62;101433.53;5014701;28;20072;-69
2022/07/24 03:14:32;;;;;;;4.40;1.30;;;;;;;14.28;51.56;101434.56;5013887;28;20502;-69
2022/07/24 03:16:58;;;;;;;5.95;1.20;;;;;;;14.24;51.50;101435.06;5013536;28;20050;-69
2022/07/24 03:19:25;;;;;;;3.42;1.48;;;;;;;14.28;51.63;101436.41;5013615;28;20140;-67
2022/07/24 03:21:52;;;;;;;2.45;1.48;;;;;;;14.29;51.50;101447.06;5013750;28;20074;-69
2022/07/24 03:24:18;;;;;;;4.43;1.40;;;;;;;14.27;51.47;101442.84;5013375;28;20133;-69
2022/07/24 03:26:45;;;;;;;5.35;1.50;;;;;;;14.25;51.72;101451.09;5013480;28;20140;-69
2022/07/24 03:29:11;;;;;;;2.63;1.00;;;;;;;14.20;51.79;101448.03;5004751;28;20049;-69
2022/07/24 03:31:38;;;;;;;5.10;1.38;;;;;;;14.18;51.70;101457.31;5013931;28;20050;-69
2022/07/24 03:34:05;;;;;;;2.95;1.23;;;;;;;14.18;51.69;101458.16;5012930;28;20069;-68
2022/07/24 03:36:33;;;;;;;6.43;1.30;;;;;;;14.20;51.73;101458.84;5013564;28;20092;-68
2022/07/24 03:38:59;;;;;;;3.78;1.10;;;;;;;14.19;51.84;101453.63;5013378;28;20138;-67
2022/07/24 03:41:26;;;;;;;2.95;1.35;;;;;;;14.23;51.61;101452.28;5013558;28;20100;-68
2022/07/24 03:43:52;;;;;;;3.50;1.40;;;;;;;14.20;51.49;101458.00;5013063;28;20493;-69
2022/07/24 03:46:19;;;;;;;2.58;1.27;;;;;;;14.25;51.54;101458.34;5013261;28;20132;-67
2022/07/24 03:48:46;;;;;;;1.83;1.30;;;;;;;14.20;51.83;101458.84;5011590;28;20536;-68
2022/07/24 03:51:12;;;;;;;3.88;1.50;;;;;;;14.19;52.00;101462.56;5012673;28;20050;-70
2022/07/24 03:53:39;;;;;;;2.33;1.23;;;;;;;14.30;51.69;101467.63;5012984;28;20096;-68
2022/07/24 03:56:08;;;;;;;4.03;1.33;;;;;;;14.29;51.77;101467.81;5012841;28;20048;-67
2022/07/24 03:58:36;;;;;;;3.45;1.00;;;;;;;14.34;51.82;101464.59;5012740;28;20401;-68
2022/07/24 04:01:05;;;;;;;4.20;1.23;;;;;;;14.38;51.82;101468.66;5012079;28;20478;-67
2022/07/24 04:03:33;;;;;;;1.63;1.10;;;;;;;14.35;52.09;101472.53;5011988;28;20056;-69
2022/07/24 04:06:01;;;;;;;3.03;1.30;;;;;;;14.42;51.84;101467.31;5012264;28;20049;-69
2022/07/24 04:08:27;;;;;;;4.10;1.30;;;;;;;14.40;51.88;101469.34;5011065;28;20160;-69
2022/07/24 04:10:56;;;;;;;4.60;1.65;;;;;;;14.46;51.77;101463.25;5010894;28;20074;-69
2022/07/24 04:13:29;;;;;;;2.60;1.30;;;;;;;14.47;51.80;101467.66;5011140;28;20053;-69
2022/07/24 04:15:56;;;;;;;3.53;1.25;;;;;;;14.52;51.90;101467.97;5011738;28;20537;-69
2022/07/24 04:18:23;;;;;;;3.40;1.10;;;;;;;14.52;52.16;101473.38;5011951;28;20045;-69
2022/07/24 04:20:50;;;;;;;2.63;1.20;;;;;;;14.57;52.44;101464.81;5011411;28;20049;-69
2022/07/24 04:23:17;;;;;;;6.68;1.20;;;;;;;14.72;52.45;101469.38;5012332;28;20468;-69
2022/07/24 04:25:45;;;;;;;6.15;1.80;;;;;;;14.74;51.97;101475.47;5012041;28;20478;-69
2022/07/24 04:28:12;;;;;;;3.67;1.33;;;;;;;14.79;51.79;101468.69;5011679;28;20073;-69
2022/07/24 04:30:38;;;;;;;3.25;1.20;;;;;;;14.84;51.63;101472.56;5012407;28;20069;-69
2022/07/24 04:33:05;;;;;;;4.32;1.30;;;;;;;14.76;52.00;101472.56;5011730;28;20045;-69
2022/07/24 04:35:31;;;;;;;3.80;1.33;;;;;;;14.85;51.92;101478.84;5010887;28;20466;-69
2022/07/24 04:37:58;;;;;;;2.58;1.00;;;;;;;15.01;51.14;101473.38;5012044;28;20574;-69
2022/07/24 04:40:24;;;;;;;1.73;1.20;;;;;;;14.97;50.86;101464.78;5012006;28;20081;-69
2022/07/24 04:42:51;;;;;;;5.70;1.45;;;;;;;15.07;50.90;101471.88;5012428;28;20065;-69
2022/07/24 04:45:20;;;;;;;2.63;1.50;;;;;;;15.08;50.41;101479.78;5011701;28;20042;-69
2022/07/24 04:47:46;;;;;;;2.45;1.02;;;;;;;15.09;50.88;101480.66;5012655;28;20453;-69
2022/07/24 04:50:13;;;;;;;5.65;1.40;;;;;;;15.17;50.79;101495.00;5012391;28;20077;-69
2022/07/24 04:52:41;;;;;;;4.43;1.45;;;;;;;15.27;50.31;101496.69;5012399;28;20133;-69
2022/07/24 04:55:09;;;;;;;3.55;1.10;;;;;;;15.30;50.49;101490.94;5012015;28;20121;-69
2022/07/24 04:57:36;;;;;;;4.85;1.58;;;;;;;15.39;49.96;101479.06;5011533;28;20124;-69
2022/07/24 05:00:07;;;;;;;3.30;1.27;;;;;;;15.36;49.99;101480.28;5007416;28;20054;-69
2022/07/24 05:02:33;;;;;;;5.20;1.25;;;;;;;15.39;49.67;101487.16;5009911;28;20074;-69
2022/07/24 05:05:00;;;;;;;6.32;1.67;;;;;;;15.44;49.97;101482.09;5014917;28;20065;-69
2022/07/24 05:07:27;;;;;;;4.10;1.35;;;;;;;15.41;49.95;101482.44;5015678;28;20077;-69
2022/07/24 05:09:57;;;;;;;2.60;0.93;;;;;;;15.58;49.44;101486.78;5015625;28;20050;-69
2022/07/24 05:12:25;;;;;;;3.13;1.38;;;;;;;15.56;49.23;101480.69;5013899;28;20076;-69
2022/07/24 05:14:51;;;;;;;3.45;0.95;;;;;;;15.77;48.84;101479.28;5015299;28;20115;-69
2022/07/24 05:17:18;;;;;;;2.72;1.20;;;;;;;15.85;48.78;101476.56;5015074;28;20084;-69
2022/07/24 05:19:45;;;;;;;4.10;1.35;;;;;;;15.96;48.45;101478.88;5015425;28;20470;-69
2022/07/24 05:22:11;;;;;;;1.95;0.90;;;;;;;15.93;48.39;101473.81;5015377;28;20133;-69
2022/07/24 05:24:38;;;;;;;2.28;0.90;;;;;;;15.97;48.22;101483.25;5014836;28;20073;-69
2022/07/24 05:27:04;;;;;;;9.80;1.30;;;;;;;15.92;47.88;101481.09;5015013;28;20062;-69
2022/07/24 05:29:38;;;;;;;4.93;1.00;;;;;;;16.04;48.25;101481.50;5014893;28;20048;-69
2022/07/24 05:32:07;;;;;;;2.65;1.08;;;;;;;15.98;47.90;101484.94;5014117;28;20056;-69
2022/07/24 05:34:34;;;;;;;2.08;1.00;;;;;;;15.94;47.84;101486.31;5014641;28;20533;-69
2022/07/24 05:37:07;;;;;;;3.35;1.40;;;;;;;15.81;48.66;101472.50;5015065;28;20132;-69
2022/07/24 05:39:36;;;;;;;2.25;0.90;;;;;;;15.88;47.90;101476.19;5015060;28;20138;-69
2022/07/24 05:42:03;;;;;;;2.28;1.02;;;;;;;15.90;48.03;101474.16;5014372;28;20106;-69
2022/07/24 05:44:30;;;;;;;2.38;1.27;;;;;;;15.98;48.05;101474.09;5015182;28;20049;-70
2022/07/24 05:46:57;;;;;;;3.63;1.00;;;;;;;15.99;48.20;101473.09;5014444;28;20077;-70
2022/07/24 05:49:24;;;;;;;4.03;1.00;;;;;;;16.15;47.74;101475.69;5013925;28;20068;-69
2022/07/24 05:51:52;;;;;;;3.95;0.88;;;;;;;16.19;47.91;101468.91;5013562;28;20046;-70
2022/07/24 05:54:18;;;;;;;3.42;1.15;;;;;;;16.32;46.77;101467.47;5013182;28;20132;-69
2022/07/24 05:56:45;;;;;;;6.68;1.00;;;;;;;16.31;46.70;101479.31;5014620;28;20446;-69
2022/07/24 05:59:11;;;;;;;5.22;1.13;;;;;;;16.35;46.73;101486.06;5014204;28;20129;-69
2022/07/24 06:01:38;;;;;;;2.08;0.90;;;;;;;16.49;46.42;101479.88;5013232;28;20397;-69
2022/07/24 06:04:04;;;;;;;2.03;0.82;;;;;;;16.52;46.26;101487.66;5014006;28;20570;-69
2022/07/24 06:06:31;;;;;;;1.45;0.73;;;;;;;16.43;46.45;101486.84;5014140;28;20136;-69
2022/07/24 06:08:58;;;;;;;3.50;1.05;;;;;;;16.51;46.38;101485.16;5012193;28;20154;-69
2022/07/24 06:11:24;;;;;;;3.50;1.13;;;;;;;16.47;46.22;101481.94;5013969;28;20387;-69
2022/07/24 06:13:51;;;;;;;1.17;0.82;;;;;;;16.46;46.09;101473.97;5013602;28;20048;-69
2022/07/24 06:16:18;;;;;;;2.38;1.10;;;;;;;16.47;46.15;101479.22;5012653;28;20052;-69
2022/07/24 06:18:48;;;;;;;5.68;1.40;;;;;;;16.48;46.81;101483.59;5012419;28;20100;-69
2022/07/24 06:21:15;;;;;;;4.65;1.45;;;;;;;16.56;46.49;101490.84;5013614;28;20049;-69
2022/07/24 06:23:42;;;;;;;6.32;1.20;;;;;;;16.76;46.10;101488.50;5014090;28;20149;-69
2022/07/24 06:26:08;;;;;;;2.85;1.05;;;;;;;16.57;47.08;101484.41;5013022;28;20124;-69
2022/07/24 06:28:35;;;;;;;5.57;2.22;;;;;;;16.63;46.67;101484.53;5013425;28;20140;-69
2022/07/24 06:31:01;;;;;;;17.85;8.10;;;;;;;16.76;46.47;101473.06;5013881;28;20048;-69
2022/07/24 06:33:29;;;;;;;8.05;1.88;;;;;;;16.80;45.84;101473.56;5013693;28;20107;-69
2022/07/24 06:35:56;;;;;;;4.53;1.50;;;;;;;16.83;46.12;101470.47;5013615;28;20447;-69
2022/07/24 06:38:22;;;;;;;3.10;1.00;;;;;;;17.00;46.03;101482.84;5013481;28;20471;-69
2022/07/24 06:40:51;;;;;;;2.33;0.98;;;;;;;17.22;45.05;101482.97;5013522;28;20101;-69
2022/07/24 06:43:19;;;;;;;5.00;1.13;;;;;;;17.24;44.77;101481.75;5013880;28;20103;-69
2022/07/24 06:45:45;;;;;;;6.28;1.17;;;;;;;17.37;44.97;101481.13;5014299;28;20141;-69
2022/07/24 06:48:12;;;;;;;3.08;1.13;;;;;;;17.45;44.62;101481.06;5013799;28;20122;-68
2022/07/24 06:50:39;;;;;;;2.22;1.00;;;;;;;17.56;44.42;101483.28;5012883;28;20049;-69
2022/07/24 06:53:06;;;;;;;3.20;1.42;;;;;;;17.73;43.95;101478.50;5012545;28;20084;-68
2022/07/24 06:55:32;;;;;;;4.00;1.20;;;;;;;17.89;43.99;101472.03;5013615;28;20136;-69
2022/07/24 06:57:59;;;;;;;6.53;1.20;;;;;;;18.03;43.90;101476.59;5012868;28;20065;-69
2022/07/24 07:00:25;;;;;;;4.85;1.00;;;;;;;18.18;43.84;101479.28;5013429;28;20145;-70
2022/07/24 07:02:52;;;;;;;2.22;0.95;;;;;;;18.43;43.48;101477.03;5013134;28;20065;-70
2022/07/24 07:05:18;;;;;;;3.75;0.98;;;;;;;18.65;42.57;101482.44;5013350;28;20100;-70
2022/07/24 07:07:45;;;;;;;6.57;1.05;;;;;;;18.79;42.32;101479.66;5013464;28;20076;-70
2022/07/24 07:10:12;;;;;;;3.67;1.38;;;;;;;19.00;42.14;101478.81;5012918;28;20472;-70
2022/07/24 07:12:38;;;;;;;3.92;1.35;;;;;;;19.28;41.56;101486.13;5013395;28;20070;-70
2022/07/24 07:15:10;;;;;;;3.30;0.80;;;;;;;19.76;39.73;101490.78;5012045;28;20562;-70
2022/07/24 07:17:38;;;;;;;3.28;1.45;;;;;;;20.19;39.07;101488.66;5012553;28;20136;-70
2022/07/24 07:20:06;;;;;;;2.25;1.00;;;;;;;20.39;38.52;101486.00;5013109;28;20046;-70
2022/07/24 07:22:33;;;;;;;5.50;1.85;;;;;;;20.59;37.49;101486.03;5013166;28;20065;-70
2022/07/24 07:24:59;;;;;;;2.80;0.80;;;;;;;21.22;36.46;101485.63;5012377;28;20550;-71
2022/07/24 07:27:26;;;;;;;2.95;0.85;;;;;;;21.46;36.03;101492.28;5011507;28;20461;-70
2022/07/24 07:29:52;;;;;;;1.33;0.85;;;;;;;21.62;35.84;101486.34;5012994;28;20065;-70
2022/07/24 07:32:19;;;;;;;1.95;0.93;;;;;;;22.06;34.98;101482.00;5011963;28;20455;-70
2022/07/24 07:34:45;;;;;;;2.78;1.05;;;;;;;22.31;34.60;101479.34;5012124;28;20072;-70
2022/07/24 07:37:12;;;;;;;2.55;1.02;;;;;;;22.63;34.06;101482.91;5012905;28;20081;-70
2022/07/24 07:39:38;;;;;;;3.58;0.73;;;;;;;23.01;33.32;101482.78;5012829;28;20069;-70
2022/07/24 07:42:05;;;;;;;1.00;0.82;;;;;;;23.32;32.26;101480.22;5012158;28;20092;-70
2022/07/24 07:44:32;;;;;;;2.35;0.80;;;;;;;23.49;32.26;101475.81;5012652;28;20057;-70
2022/07/24 07:46:58;;;;;;;2.97;0.80;;;;;;;23.71;31.90;101481.66;5012329;28;20041;-70
2022/07/24 07:49:25;;;;;;;6.18;1.00;;;;;;;23.74;31.92;101472.97;5012702;28;20570;-70
2022/07/24 07:51:52;;;;;;;4.43;1.05;;;;;;;24.03;31.22;101476.03;5012381;28;20050;-70
2022/07/24 07:54:19;;;;;;;1.17;0.60;;;;;;;24.44;30.49;101476.09;5011945;28;20467;-70
2022/07/24 07:56:45;;;;;;;6.38;1.00;;;;;;;24.90;29.51;101477.22;5013317;28;20457;-71
2022/07/24 07:59:12;;;;;;;8.52;3.85;;;;;;;24.85;29.01;101474.38;5012498;28;20081;-71
2022/07/24 08:01:38;;;;;;;3.33;1.05;;;;;;;24.63;29.34;101468.59;5012924;28;20133;-71
2022/07/24 08:04:05;;;;;;;2.90;1.08;;;;;;;25.26;28.21;101480.81;5012128;28;20058;-71
2022/07/24 08:06:32;;;;;;;3.10;0.80;;;;;;;25.06;27.56;101475.72;5012874;28;20133;-72
2022/07/24 08:08:58;;;;;;;1.77;1.00;;;;;;;25.04;28.03;101475.09;5012653;28;20120;-72
2022/07/24 08:11:25;;;;;;;5.15;0.73;;;;;;;24.61;29.15;101473.50;5013356;28;20050;-71
2022/07/24 08:13:53;;;;;;;5.82;1.00;;;;;;;24.90;28.86;101479.13;5012950;28;20052;-71
2022/07/24 08:16:20;;;;;;;7.57;1.17;;;;;;;25.95;27.55;101474.59;5012656;28;20042;-71
2022/07/24 08:18:46;;;;;;;3.28;0.90;;;;;;;25.34;28.52;101476.88;5012893;28;20125;-71
2022/07/24 08:21:18;;;;;;;2.10;0.82;;;;;;;26.00;27.57;101464.53;5011682;28;20056;-71
2022/07/24 08:23:45;;;;;;;2.72;0.90;;;;;;;26.00;26.42;101470.03;5012038;28;20045;-71
2022/07/24 08:26:12;;;;;;;3.03;1.10;;;;;;;26.21;26.38;101464.97;5012440;28;20054;-71
2022/07/24 08:28:38;;;;;;;2.25;0.75;;;;;;;26.43;25.72;101463.13;5011658;28;20247;-71
2022/07/24 08:31:05;;;;;;;3.53;0.90;;;;;;;27.02;25.32;101471.00;5009447;28;20133;-71
2022/07/24 08:33:32;;;;;;;2.13;1.10;;;;;;;26.50;26.50;101465.75;5010970;28;20494;-71
2022/07/24 08:35:59;;;;;;;3.83;0.90;;;;;;;27.23;25.82;101461.94;5010080;28;20462;-72
2022/07/24 08:38:26;;;;;;;2.90;0.80;;;;;;;27.48;25.60;101458.72;5013514;28;20074;-71
2022/07/24 08:40:53;;;;;;;3.15;0.85;;;;;;;27.73;25.24;101449.94;5015017;28;20088;-71
2022/07/24 08:43:19;;;;;;;3.83;0.98;;;;;;;27.45;25.80;101451.00;5015268;28;20582;-70
2022/07/24 08:45:46;;;;;;;2.13;0.82;;;;;;;27.61;25.50;101452.00;5015430;28;20125;-70
2022/07/24 08:48:13;;;;;;;3.70;0.77;;;;;;;27.80;24.73;101452.50;5016061;28;20050;-70
2022/07/24 08:50:42;;;;;;;2.58;0.98;;;;;;;28.12;24.56;101451.78;5015786;28;20066;-71
2022/07/24 08:53:09;;;;;;;2.05;0.98;;;;;;;28.71;23.85;101460.06;5016100;28;20149;-71
2022/07/24 08:55:35;;;;;;;2.55;0.95;;;;;;;28.11;24.38;101450.94;5016297;28;20046;-70
2022/07/24 08:58:02;;;;;;;2.22;0.90;;;;;;;28.13;24.63;101453.44;5015758;28;20141;-70
2022/07/24 09:00:31;;;;;;;1.63;0.70;;;;;;;28.00;24.36;101453.84;5015796;28;20133;-70
2022/07/24 09:02:58;;;;;;;1.05;0.65;;;;;;;28.38;23.80;101458.34;5016170;28;20105;-71
2022/07/24 09:05:24;;;;;;;1.92;0.90;;;;;;;28.50;23.31;101458.22;5015544;28;20092;-71
2022/07/24 09:08:11;;;;;;;1.30;0.90;;;;;;;28.31;23.21;101450.28;5014351;28;20540;-71
2022/07/24 09:10:38;;;;;;;3.55;0.88;;;;;;;28.09;23.38;101463.31;5015970;28;20077;-71
2022/07/24 09:13:15;;;;;;;2.03;1.00;;;;;;;28.49;23.83;101457.38;5015918;28;20136;-71
2022/07/24 09:15:45;;;;;;;2.70;0.90;;;;;;;27.20;25.37;101447.84;5015389;28;20068;-71
2022/07/24 09:18:26;;;;;;;3.45;1.60;;;;;;;27.73;24.56;101451.88;5015390;28;20100;-71
2022/07/24 09:20:53;;;;;;;3.15;1.10;;;;;;;28.24;24.20;101446.09;5014870;28;20544;-70
2022/07/24 09:23:20;;;;;;;1.60;1.20;;;;;;;28.65;23.51;101461.09;5014790;28;20076;-70
2022/07/24 09:25:51;;;;;;;3.17;1.30;;;;;;;28.88;23.24;101449.69;5016039;28;20185;-71
2022/07/24 09:28:19;;;;;;;3.28;0.70;;;;;;;29.06;23.54;101455.91;5015638;28;20173;-70
2022/07/24 09:30:48;;;;;;;3.83;0.88;;;;;;;29.28;23.06;101456.56;5015795;28;20125;-70
2022/07/24 09:33:18;;;;;;;1.60;0.93;;;;;;;29.47;22.83;101451.41;5014917;28;20045;-70
2022/07/24 09:35:52;;;;;;;2.85;1.00;;;;;;;29.24;23.27;101446.31;5015348;28;20041;-70
2022/07/24 09:38:24;;;;;;;1.75;1.30;;;;;;;28.75;23.64;101444.59;5015140;28;20506;-70
2022/07/24 09:40:54;;;;;;;6.28;1.70;;;;;;;29.45;22.86;101441.72;5014740;28;20483;-70
2022/07/24 09:43:26;;;;;;;2.75;1.23;;;;;;;28.74;23.02;101439.38;5014616;28;20053;-70
2022/07/24 09:46:09;;;;;;;1.75;1.02;;;;;;;28.89;22.19;101433.94;5013827;28;20046;-69
2022/07/24 09:48:53;;;;;;;2.17;1.08;;;;;;;29.26;22.27;101444.13;5014095;28;20052;-69
2022/07/24 09:51:20;;;;;;;1.80;0.90;;;;;;;28.73;22.98;101443.19;5013774;28;20050;-70
2022/07/24 09:53:56;;;;;;;1.90;1.05;;;;;;;28.60;22.53;101439.00;5015127;28;20046;-71
2022/07/24 09:56:23;;;;;;;2.15;1.00;;;;;;;28.49;22.66;101442.75;5013382;28;20213;-71
2022/07/24 09:58:55;;;;;;;4.00;1.02;;;;;;;29.61;21.57;101446.25;5014049;28;20402;-71
2022/07/24 10:01:24;;;;;;;7.40;1.38;;;;;;;29.65;21.68;101439.06;5014110;28;20073;-71
2022/07/24 10:03:53;;;;;;;3.03;1.20;;;;;;;29.61;20.97;101446.25;5013288;28;20072;-71
2022/07/24 10:06:25;;;;;;;4.15;1.15;;;;;;;30.38;20.13;101443.66;5014224;28;20065;-70
2022/07/24 10:08:53;;;;;;;4.38;1.27;;;;;;;30.44;20.46;101439.78;5014158;28;20069;-70
2022/07/24 10:11:21;;;;;;;3.13;1.52;;;;;;;30.65;20.43;101435.09;5014409;28;20129;-71
2022/07/24 10:13:48;;;;;;;4.90;2.97;;;;;;;30.52;20.34;101440.06;5014299;28;20128;-70
2022/07/24 10:16:28;;;;;;;7.30;1.55;;;;;;;30.98;19.69;101425.31;5013991;28;20133;-70
2022/07/24 10:19:05;;;;;;;8.32;1.48;;;;;;;29.94;20.29;101436.63;5014035;28;20398;-71
2022/07/24 10:21:35;;;;;;;4.25;1.35;;;;;;;29.87;20.43;101432.47;5014278;28;20124;-71
2022/07/24 10:24:07;;;;;;;2.50;1.35;;;;;;;30.27;20.22;101427.03;5014041;28;20092;-71
2022/07/24 10:26:43;;;;;;;1.67;1.17;;;;;;;29.22;21.16;101420.88;5014051;28;20068;-71
2022/07/24 10:29:10;;;;;;;6.93;4.78;;;;;;;28.07;23.30;101424.13;5013705;28;20133;-71
2022/07/24 10:31:39;;;;;;;2.28;1.33;;;;;;;28.23;23.16;101416.84;5012543;28;20129;-71
2022/07/24 10:34:15;;;;;;;2.20;0.90;;;;;;;29.09;21.24;101427.75;5008792;28;20544;-70
2022/07/24 10:36:54;;;;;;;3.25;1.20;;;;;;;28.82;21.68;101406.56;5013734;28;20072;-70
2022/07/24 10:39:31;;;;;;;2.20;1.00;;;;;;;29.61;20.87;101407.53;5013591;28;20523;-70
2022/07/24 10:42:06;;;;;;;2.00;0.90;;;;;;;29.43;21.24;101413.50;5013911;28;20049;-71
2022/07/24 10:44:33;;;;;;;2.70;1.45;;;;;;;28.91;21.75;101404.97;5013125;28;20053;-70
2022/07/24 10:47:03;;;;;;;2.70;1.80;;;;;;;29.14;21.50;101412.00;5014019;28;20053;-70
2022/07/24 10:49:47;;;;;;;2.83;1.00;;;;;;;29.51;21.19;101413.03;5013941;28;20046;-70
2022/07/24 10:52:26;;;;;;;3.30;1.00;;;;;;;28.87;22.24;101417.66;5011387;28;20046;-72
2022/07/24 10:55:20;;;;;;;2.35;1.42;;;;;;;28.97;21.89;101414.13;5013070;28;20080;-70
2022/07/24 10:58:08;;;;;;;5.10;1.10;;;;;;;28.54;22.59;101415.19;5013950;28;20120;-71
2022/07/24 11:00:38;;;;;;;0.90;0.90;;;;;;;28.27;22.78;101409.69;5012535;28;20450;-70
2022/07/24 11:03:29;;;;;;;1.85;1.20;;;;;;;28.99;22.07;101417.47;5013158;28;20052;-71
2022/07/24 11:06:06;;;;;;;2.75;1.05;;;;;;;28.61;22.80;101410.28;5013450;28;20045;-70
2022/07/24 11:08:45;;;;;;;1.55;1.20;;;;;;;28.69;22.51;101401.50;5012831;28;20080;-71
2022/07/24 11:11:14;;;;;;;2.10;1.10;;;;;;;28.72;22.22;101405.66;5012710;28;20094;-70
2022/07/24 11:13:43;;;;;;;5.95;1.10;;;;;;;28.75;22.78;101399.59;5013556;28;20133;-70
2022/07/24 11:16:12;;;;;;;3.78;1.02;;;;;;;28.28;23.10;101400.31;5012163;28;20049;-71
2022/07/24 11:19:00;;;;;;;2.30;1.30;;;;;;;28.33;23.12;101397.59;5013242;28;20486;-71
2022/07/24 11:21:38;;;;;;;2.65;1.15;;;;;;;28.13;23.28;101393.56;5012621;28;20061;-71
2022/07/24 11:24:13;;;;;;;1.73;1.00;;;;;;;27.95;23.21;101393.97;5013300;28;20393;-71
2022/07/24 11:26:43;;;;;;;2.63;1.27;;;;;;;27.36;23.85;101389.16;5013106;28;20053;-71
2022/07/24 11:29:13;;;;;;;4.35;1.13;;;;;;;28.34;22.83;101389.06;5012231;28;20042;-71